Time;durP1;ratioP1;P1;durP2;ratioP2;P2;SDS_P1;SDS_P2;PMS_P1;PMS_P2;Temp;Humidity;BMP_temperature;BMP_pressure;BME280_temperature;BME280_humidity;BME280_pressure;Samples;Min_cycle;Max_cycle;Signal;HPM_P1;HPM_P2
2022/10/07 00:01:11;;;;;;;;;16.00;15.00;;;23.86;102290.41;;;;117544;1188;25330;-58
2022/10/07 00:03:40;;;;;;;;;14.67;13.67;;;23.87;102290.85;;;;117887;1188;25151;-57
2022/10/07 00:06:14;;;;;;;;;13.25;13.00;;;23.88;102288.66;;;;117529;1188;25075;-58
2022/10/07 00:08:46;;;;;;;;;20.00;15.75;;;23.88;102287.53;;;;117510;1188;24861;-58
2022/10/07 00:11:20;;;;;;;;;14.50;12.75;;;23.89;102287.33;;;;117495;1188;25379;-59
2022/10/07 00:13:52;;;;;;;;;15.00;14.67;;;23.90;102286.14;;;;117489;1186;25085;-58
2022/10/07 00:16:24;;;;;;;;;11.00;11.00;;;23.92;102284.92;;;;117520;1188;24972;-58
2022/10/07 00:18:56;;;;;;;;;12.25;10.50;;;23.91;102282.40;;;;117755;1188;24891;-57
2022/10/07 00:21:27;;;;;;;;;13.00;12.00;;;23.91;102285.54;;;;117535;1188;24792;-57
2022/10/07 00:23:57;;;;;;;;;13.00;12.50;;;23.91;102287.52;;;;117524;1188;25686;-58
2022/10/07 00:26:29;;;;;;;;;11.33;11.33;;;23.90;102285.96;;;;117880;1186;25367;-58
2022/10/07 00:28:58;;;;;;;;;16.33;14.67;;;23.91;102286.79;;;;117900;1186;24813;-64
2022/10/07 00:31:29;;;;;;;;;12.67;12.00;;;23.90;102285.09;;;;117454;1189;24868;-59
2022/10/07 00:33:57;;;;;;;;;16.00;14.00;;;23.88;102280.22;;;;117491;1189;25549;-58
2022/10/07 00:36:28;;;;;;;;;16.50;13.00;;;23.89;102280.17;;;;117496;1189;24969;-57
2022/10/07 00:38:59;;;;;;;;;12.00;11.00;;;23.88;102277.36;;;;117482;1189;24834;-57
2022/10/07 00:41:31;;;;;;;;;13.50;10.75;;;23.88;102277.77;;;;117508;1188;25543;-58
2022/10/07 00:44:31;;;;;;;;;15.00;13.33;;;23.87;102273.46;;;;117803;1186;24720;-63
2022/10/07 00:47:11;;;;;;;;;16.00;13.00;;;23.91;102272.33;;;;117836;1188;25582;-58
2022/10/07 00:49:49;;;;;;;;;14.67;13.00;;;23.90;102274.08;;;;117498;1188;25138;-58
2022/10/07 00:52:21;;;;;;;;;13.67;12.00;;;23.89;102274.83;;;;117493;1188;25618;-59
2022/10/07 00:54:52;;;;;;;;;13.50;13.00;;;23.88;102276.85;;;;117522;1187;25177;-58
2022/10/07 00:57:23;;;;;;;;;13.25;13.00;;;23.85;102274.59;;;;117845;1186;25755;-58
2022/10/07 00:59:54;;;;;;;;;19.75;14.25;;;23.85;102275.15;;;;117468;1187;24835;-58
2022/10/07 01:02:24;;;;;;;;;13.00;12.75;;;23.86;102269.77;;;;117479;1189;24979;-61
2022/10/07 01:04:53;;;;;;;;;11.33;10.33;;;23.85;102270.27;;;;117531;1188;25559;-58
2022/10/07 01:07:22;;;;;;;;;16.25;13.75;;;23.83;102270.15;;;;117904;1188;25201;-58
2022/10/07 01:09:51;;;;;;;;;10.25;10.25;;;23.82;102269.96;;;;117519;1186;25287;-58
2022/10/07 01:12:48;;;;;;;;;13.00;12.33;;;23.81;102270.95;;;;117524;1188;25254;-58
2022/10/07 01:15:33;;;;;;;;;14.25;12.50;;;23.82;102265.89;;;;117495;1188;25247;-61
2022/10/07 01:18:04;;;;;;;;;12.50;9.25;;;23.83;102267.33;;;;117889;1187;25535;-60
2022/10/07 01:20:35;;;;;;;;;12.50;12.50;;;23.80;102266.06;;;;117908;1188;25169;-60
2022/10/07 01:23:53;;;;;;;;;13.25;11.75;;;23.81;102260.36;;;;117498;1189;25518;-61
2022/10/07 01:26:27;;;;;;;;;12.50;9.50;;;23.91;102263.05;;;;117705;1186;25526;-65
2022/10/07 01:29:02;;;;;;;;;10.50;10.50;;;23.94;102264.52;;;;117568;1188;25299;-66
2022/10/07 01:31:36;;;;;;;;;12.67;11.00;;;23.92;102266.52;;;;117862;1188;25153;-65
2022/10/07 01:34:06;;;;;;;;;12.33;11.33;;;23.89;102265.65;;;;117872;1188;24862;-64
2022/10/07 01:36:36;;;;;;;;;11.50;9.50;;;23.87;102267.31;;;;117493;1189;25452;-66
2022/10/07 01:39:10;;;;;;;;;12.75;11.75;;;23.86;102266.33;;;;117503;1188;25493;-59
2022/10/07 01:41:39;;;;;;;;;11.00;9.67;;;23.84;102268.36;;;;117510;1189;25388;-59
2022/10/07 01:44:09;;;;;;;;;13.00;11.00;;;23.84;102265.87;;;;117503;1187;25246;-59
2022/10/07 01:46:38;;;;;;;;;10.00;10.00;;;23.83;102265.40;;;;117527;1188;25458;-58
2022/10/07 01:49:06;;;;;;;;;9.75;9.00;;;23.82;102263.79;;;;117463;1187;25518;-59
2022/10/07 01:51:38;;;;;;;;;15.00;13.00;;;23.81;102261.08;;;;117370;1190;24862;-58
2022/10/07 01:54:39;;;;;;;;;12.00;12.00;;;23.80;102260.27;;;;117413;1189;25200;-57
2022/10/07 01:57:19;;;;;;;;;12.67;11.00;;;23.83;102254.64;;;;117855;1188;24788;-58
2022/10/07 02:00:04;;;;;;;;;10.67;9.67;;;23.83;102255.44;;;;117473;1189;24933;-58
2022/10/07 02:02:51;;;;;;;;;11.33;10.00;;;23.83;102260.80;;;;117430;1190;25384;-58
2022/10/07 02:05:34;;;;;;;;;10.25;10.25;;;23.81;102261.77;;;;117515;1186;24767;-59
2022/10/07 02:08:11;;;;;;;;;13.25;11.75;;;23.78;102263.27;;;;117889;1188;25637;-58
2022/10/07 02:11:08;;;;;;;;;5.00;4.33;;;23.77;102265.40;;;;117521;1188;25302;-59
2022/10/07 02:13:42;;;;;;;;;14.33;11.33;;;23.77;102265.77;;;;117505;1188;25571;-58
2022/10/07 02:16:16;;;;;;;;;10.25;7.25;;;23.77;102265.38;;;;117865;1188;25001;-64
2022/10/07 02:18:49;;;;;;;;;13.00;11.00;;;23.77;102267.02;;;;117521;1188;25329;-58
2022/10/07 02:21:22;;;;;;;;;10.75;10.50;;;23.77;102267.26;;;;117473;1188;25149;-59
2022/10/07 02:23:52;;;;;;;;;12.00;9.67;;;23.77;102269.06;;;;117511;1188;24844;-60
2022/10/07 02:26:21;;;;;;;;;13.00;11.67;;;23.77;102268.54;;;;117529;1189;25617;-58
2022/10/07 02:28:51;;;;;;;;;13.33;11.33;;;23.77;102269.31;;;;117501;1188;25085;-58
2022/10/07 02:31:24;;;;;;;;;14.00;11.50;;;23.77;102272.13;;;;117814;1187;25323;-59
2022/10/07 02:33:56;;;;;;;;;11.50;9.50;;;23.75;102273.63;;;;117729;1189;24939;-59
2022/10/07 02:36:28;;;;;;;;;11.00;10.00;;;23.76;102269.27;;;;117418;1190;25043;-58
2022/10/07 02:38:59;;;;;;;;;10.00;9.75;;;23.74;102268.42;;;;117437;1189;24750;-60
2022/10/07 02:41:40;;;;;;;;;9.75;9.25;;;23.76;102268.33;;;;117426;1190;24953;-64
2022/10/07 02:44:15;;;;;;;;;10.00;10.00;;;23.76;102265.11;;;;117459;1188;25510;-59
2022/10/07 02:47:10;;;;;;;;;10.75;8.75;;;23.76;102264.77;;;;117396;1190;25294;-57
2022/10/07 02:49:41;;;;;;;;;12.00;8.33;;;23.81;102267.46;;;;117466;1189;24795;-59
2022/10/07 02:52:13;;;;;;;;;10.67;9.67;;;23.82;102265.38;;;;117417;1190;25094;-58
2022/10/07 02:55:03;;;;;;;;;9.00;9.00;;;23.81;102263.23;;;;117417;1189;25242;-58
2022/10/07 02:57:38;;;;;;;;;12.00;10.00;;;23.80;102264.36;;;;117435;1190;25538;-58
2022/10/07 03:00:09;;;;;;;;;10.00;10.00;;;23.80;102262.64;;;;117428;1188;25108;-58
2022/10/07 03:02:56;;;;;;;;;12.33;10.00;;;23.79;102259.62;;;;117430;1190;26507;-58
2022/10/07 03:05:24;;;;;;;;;8.00;8.00;;;23.78;102262.44;;;;117452;1189;25121;-58
2022/10/07 03:07:59;;;;;;;;;9.75;8.75;;;23.77;102261.83;;;;117460;1190;25643;-59
2022/10/07 03:10:28;;;;;;;;;9.50;8.50;;;23.76;102265.04;;;;117430;1190;24962;-58
2022/10/07 03:12:56;;;;;;;;;16.00;11.00;;;23.78;102268.34;;;;117409;1190;24899;-58
2022/10/07 03:15:26;;;;;;;;;7.75;7.75;;;23.77;102264.98;;;;117432;1190;25228;-58
2022/10/07 03:17:54;;;;;;;;;9.00;8.00;;;23.74;102265.85;;;;117439;1188;25100;-58
2022/10/07 03:20:23;;;;;;;;;11.00;9.00;;;23.75;102268.70;;;;117454;1189;24855;-58
2022/10/07 03:22:51;;;;;;;;;10.00;8.33;;;23.73;102268.48;;;;117404;1190;25714;-58
2022/10/07 03:25:19;;;;;;;;;12.50;11.25;;;23.72;102273.03;;;;117374;1189;25230;-58
2022/10/07 03:27:48;;;;;;;;;11.25;9.75;;;23.71;102273.12;;;;117814;1186;24866;-58
2022/10/07 03:30:19;;;;;;;;;11.25;10.75;;;23.71;102272.25;;;;117407;1190;25590;-59
2022/10/07 03:32:52;;;;;;;;;10.00;9.50;;;23.70;102270.41;;;;117478;1188;24965;-58
2022/10/07 03:35:20;;;;;;;;;14.00;12.00;;;23.70;102267.64;;;;117470;1189;25460;-58
2022/10/07 03:37:49;;;;;;;;;12.00;7.75;;;23.71;102266.67;;;;117505;1189;24766;-58
2022/10/07 03:40:17;;;;;;;;;12.33;10.33;;;23.71;102262.93;;;;117481;1189;25703;-58
2022/10/07 03:42:46;;;;;;;;;13.33;12.67;;;23.70;102261.13;;;;117536;1188;25175;-58
2022/10/07 03:45:15;;;;;;;;;11.25;10.25;;;23.68;102258.45;;;;117524;1189;25566;-58
2022/10/07 03:47:43;;;;;;;;;11.25;8.75;;;23.70;102254.50;;;;117457;1188;25337;-59
2022/10/07 03:50:12;;;;;;;;;10.25;8.25;;;23.70;102249.81;;;;117528;1188;25420;-60
2022/10/07 03:52:40;;;;;;;;;8.67;6.67;;;23.70;102246.52;;;;117510;1189;25659;-58
2022/10/07 03:55:09;;;;;;;;;10.00;9.25;;;23.69;102246.07;;;;117478;1188;25467;-58
2022/10/07 03:57:49;;;;;;;;;8.75;8.50;;;23.70;102242.90;;;;117466;1189;25767;-60
2022/10/07 04:00:25;;;;;;;;;9.33;9.33;;;23.72;102243.67;;;;117496;1188;25217;-59
2022/10/07 04:02:53;;;;;;;;;8.25;6.75;;;23.71;102244.91;;;;117500;1189;24924;-58
2022/10/07 04:05:22;;;;;;;;;12.50;12.00;;;23.70;102245.48;;;;117496;1186;24692;-58
2022/10/07 04:07:51;;;;;;;;;10.00;8.50;;;23.71;102242.48;;;;117540;1188;25616;-58
2022/10/07 04:10:20;;;;;;;;;9.33;9.00;;;23.73;102244.48;;;;117492;1188;25161;-58
2022/10/07 04:12:50;;;;;;;;;10.50;9.75;;;23.73;102242.12;;;;117807;1187;24816;-58
2022/10/07 04:15:19;;;;;;;;;12.00;10.00;;;23.74;102244.80;;;;117513;1188;25502;-58
2022/10/07 04:17:48;;;;;;;;;14.00;9.25;;;23.73;102244.40;;;;117533;1188;25120;-58
2022/10/07 04:20:17;;;;;;;;;9.75;8.00;;;23.73;102245.11;;;;117524;1188;25083;-58
2022/10/07 04:22:45;;;;;;;;;10.50;9.00;;;23.72;102242.52;;;;117467;1188;25138;-58
2022/10/07 04:28:05;;;;;;;;;13.33;11.33;;;23.73;102249.51;;;;117838;1187;25599;-58
2022/10/07 04:30:38;;;;;;;;;13.33;11.00;;;23.73;102256.90;;;;117506;1188;24864;-57
2022/10/07 04:33:07;;;;;;;;;8.50;7.00;;;23.73;102254.64;;;;117878;1186;25086;-59
2022/10/07 04:35:37;;;;;;;;;11.50;10.00;;;23.73;102258.48;;;;117436;1190;25298;-58
2022/10/07 04:38:10;;;;;;;;;11.67;9.67;;;23.74;102259.66;;;;117698;1186;25316;-58
2022/10/07 04:40:40;;;;;;;;;13.50;10.50;;;23.73;102256.17;;;;117532;1188;24821;-60
2022/10/07 04:43:18;;;;;;;;;13.33;9.33;;;23.73;102258.00;;;;117846;1188;25437;-59
2022/10/07 04:45:54;;;;;;;;;11.00;9.25;;;23.72;102257.81;;;;117513;1188;25047;-58
2022/10/07 04:48:25;;;;;;;;;10.00;9.00;;;23.74;102259.40;;;;117482;1188;25104;-57
2022/10/07 04:50:53;;;;;;;;;11.50;10.50;;;23.74;102260.13;;;;117873;1186;25266;-58
2022/10/07 04:53:22;;;;;;;;;11.33;9.67;;;23.73;102262.33;;;;117539;1188;24748;-58
2022/10/07 04:55:51;;;;;;;;;13.75;9.00;;;23.72;102263.45;;;;117538;1188;24725;-59
2022/10/07 04:58:19;;;;;;;;;11.25;7.50;;;23.75;102261.86;;;;117489;1188;24814;-58
2022/10/07 05:00:50;;;;;;;;;15.00;11.00;;;23.74;102259.33;;;;117429;1187;24776;-58
2022/10/07 05:03:21;;;;;;;;;10.25;10.00;;;23.73;102261.14;;;;117801;1187;25460;-58
2022/10/07 05:05:51;;;;;;;;;10.75;10.50;;;23.75;102262.15;;;;117635;1188;25181;-59
2022/10/07 05:08:23;;;;;;;;;13.50;9.75;;;23.76;102267.11;;;;117514;1187;25455;-59
2022/10/07 05:10:55;;;;;;;;;13.33;11.67;;;23.76;102270.03;;;;117844;1188;25661;-58
2022/10/07 05:13:25;;;;;;;;;10.25;10.25;;;23.77;102274.05;;;;117481;1188;24768;-59
2022/10/07 05:15:56;;;;;;;;;12.50;11.50;;;23.78;102279.05;;;;117534;1189;24811;-59
2022/10/07 05:18:26;;;;;;;;;9.25;9.00;;;23.77;102282.35;;;;117802;1188;24753;-61
2022/10/07 05:20:55;;;;;;;;;9.50;9.00;;;23.79;102282.84;;;;117503;1188;25281;-60
2022/10/07 05:23:25;;;;;;;;;9.75;9.50;;;23.79;102284.65;;;;117791;1186;25555;-60
2022/10/07 05:26:01;;;;;;;;;9.00;7.25;;;23.78;102286.70;;;;117804;1187;25703;-60
2022/10/07 05:28:30;;;;;;;;;11.50;10.25;;;23.80;102289.18;;;;117870;1188;25684;-59
2022/10/07 05:31:13;;;;;;;;;12.00;11.50;;;23.79;102288.90;;;;117506;1188;25360;-58
2022/10/07 05:33:42;;;;;;;;;14.25;11.00;;;23.79;102288.83;;;;117535;1188;24851;-58
2022/10/07 05:36:11;;;;;;;;;12.75;9.25;;;23.80;102290.89;;;;117538;1188;25081;-59
2022/10/07 05:38:40;;;;;;;;;11.00;10.00;;;23.79;102296.80;;;;117499;1188;24845;-58
2022/10/07 05:41:10;;;;;;;;;11.50;11.00;;;23.78;102297.84;;;;117920;1186;25173;-58
2022/10/07 05:43:46;;;;;;;;;10.00;9.50;;;23.78;102296.77;;;;117514;1188;25343;-58
2022/10/07 05:46:16;;;;;;;;;12.75;12.00;;;23.78;102298.19;;;;117837;1187;24698;-58
2022/10/07 05:48:46;;;;;;;;;12.67;11.00;;;23.80;102299.21;;;;117509;1189;25407;-58
2022/10/07 05:51:14;;;;;;;;;12.00;11.67;;;23.81;102302.50;;;;117875;1188;26128;-60
2022/10/07 05:53:45;;;;;;;;;12.50;10.50;;;23.81;102306.04;;;;117495;1189;25509;-65
2022/10/07 05:56:16;;;;;;;;;15.00;11.00;;;23.79;102303.39;;;;117880;1186;25720;-59
2022/10/07 05:58:45;;;;;;;;;12.50;10.50;;;23.81;102303.73;;;;117948;1186;24908;-58
2022/10/07 06:01:18;;;;;;;;;10.50;8.75;;;23.83;102301.10;;;;117464;1188;25118;-58
2022/10/07 06:03:51;;;;;;;;;12.50;10.00;;;23.82;102303.42;;;;117840;1186;25414;-58
2022/10/07 06:06:20;;;;;;;;;12.50;7.50;;;23.88;102305.19;;;;117496;1188;25010;-59
2022/10/07 06:08:49;;;;;;;;;13.33;9.67;;;23.91;102307.96;;;;117487;1188;24974;-58
2022/10/07 06:14:06;;;;;;;;;11.75;11.25;;;23.91;102305.34;;;;117825;1186;25029;-58
2022/10/07 06:16:34;;;;;;;;;15.50;13.00;;;23.92;102305.64;;;;117548;1188;25571;-59
2022/10/07 06:19:03;;;;;;;;;27.00;18.33;;;23.92;102306.95;;;;117531;1188;24840;-59
2022/10/07 06:21:31;;;;;;;;;48.00;33.67;;;23.95;102307.95;;;;117423;1189;25164;-58
2022/10/07 06:24:00;;;;;;;;;64.33;43.00;;;23.96;102308.42;;;;117463;1187;25631;-61
2022/10/07 06:26:28;;;;;;;;;48.67;37.33;;;24.11;102308.30;;;;117493;1188;25571;-68
2022/10/07 06:28:57;;;;;;;;;48.33;35.33;;;24.07;102309.16;;;;117445;1189;24694;-64
2022/10/07 06:31:25;;;;;;;;;47.00;30.67;;;24.07;102308.83;;;;117432;1188;25339;-64
2022/10/07 06:33:53;;;;;;;;;33.00;25.67;;;24.02;102313.79;;;;117360;1190;25585;-61
2022/10/07 06:36:22;;;;;;;;;40.33;26.00;;;24.01;102313.54;;;;117424;1190;24985;-65
2022/10/07 06:38:52;;;;;;;;;33.50;22.00;;;24.04;102313.59;;;;117467;1189;25210;-70
2022/10/07 06:41:21;;;;;;;;;39.00;23.67;;;24.13;102316.23;;;;117418;1190;26367;-67
2022/10/07 06:43:55;;;;;;;;;32.00;21.00;;;24.15;102318.20;;;;117431;1189;24965;-69
2022/10/07 06:46:23;;;;;;;;;25.67;18.67;;;24.16;102316.85;;;;117443;1189;25647;-61
2022/10/07 06:48:52;;;;;;;;;30.00;19.33;;;24.19;102321.43;;;;117450;1189;25418;-61
2022/10/07 06:51:21;;;;;;;;;27.67;20.00;;;24.23;102322.98;;;;117263;1190;25589;-59
2022/10/07 06:53:52;;;;;;;;;28.33;22.00;;;24.34;102324.94;;;;117425;1188;25489;-61
2022/10/07 06:56:21;;;;;;;;;26.33;20.33;;;24.39;102325.02;;;;117462;1190;25665;-59
2022/10/07 06:58:50;;;;;;;;;22.33;17.33;;;24.41;102324.80;;;;117431;1190;25192;-60
2022/10/07 07:01:18;;;;;;;;;20.33;17.67;;;24.42;102320.05;;;;117455;1189;25797;-61
2022/10/07 07:03:47;;;;;;;;;22.67;18.00;;;24.47;102320.59;;;;117468;1190;25286;-61
2022/10/07 07:06:16;;;;;;;;;20.67;16.67;;;24.43;102322.27;;;;117382;1190;24796;-59
2022/10/07 07:08:45;;;;;;;;;24.67;18.00;;;24.42;102319.91;;;;117398;1190;25340;-59
2022/10/07 07:14:02;;;;;;;;;16.33;13.00;;;24.48;102318.25;;;;117447;1189;25655;-59
2022/10/07 07:16:31;;;;;;;;;26.50;20.50;;;24.48;102318.90;;;;117425;1189;24895;-59
2022/10/07 07:19:03;;;;;;;;;19.00;18.67;;;24.51;102316.65;;;;117456;1190;25099;-59
2022/10/07 07:21:33;;;;;;;;;19.00;15.00;;;24.52;102313.36;;;;117434;1189;25471;-60
2022/10/07 07:24:01;;;;;;;;;19.00;15.67;;;24.57;102314.80;;;;117450;1189;25610;-60
2022/10/07 07:26:30;;;;;;;;;22.00;18.33;;;24.58;102311.94;;;;117462;1188;25160;-59
2022/10/07 07:29:04;;;;;;;;;25.67;19.00;;;24.60;102313.08;;;;117414;1190;25067;-58
2022/10/07 07:31:34;;;;;;;;;19.00;16.00;;;24.66;102310.86;;;;117417;1190;24745;-60
2022/10/07 07:34:06;;;;;;;;;20.00;14.67;;;24.71;102309.92;;;;117469;1189;25412;-60
2022/10/07 07:36:35;;;;;;;;;20.33;16.33;;;24.74;102312.92;;;;117508;1188;24856;-63
2022/10/07 07:39:07;;;;;;;;;17.00;14.67;;;24.78;102311.11;;;;117609;1188;24961;-62
2022/10/07 07:41:39;;;;;;;;;18.00;14.50;;;24.80;102307.88;;;;117866;1188;24933;-62
2022/10/07 07:44:10;;;;;;;;;19.33;14.67;;;24.82;102310.38;;;;117848;1186;25288;-63
2022/10/07 07:46:42;;;;;;;;;22.33;17.67;;;24.83;102309.42;;;;117403;1190;24873;-62
2022/10/07 07:49:11;;;;;;;;;18.67;15.33;;;24.83;102306.85;;;;117503;1188;24892;-61
2022/10/07 07:51:41;;;;;;;;;20.00;17.33;;;24.85;102305.64;;;;117643;1188;25078;-62
2022/10/07 07:54:11;;;;;;;;;20.67;17.67;;;24.87;102303.48;;;;117457;1189;24834;-61
2022/10/07 07:56:40;;;;;;;;;16.75;16.25;;;24.87;102301.41;;;;117459;1190;25534;-63
2022/10/07 07:59:10;;;;;;;;;22.50;16.50;;;24.89;102306.33;;;;117476;1190;25405;-63
2022/10/07 08:01:38;;;;;;;;;17.00;17.00;;;24.90;102307.66;;;;117491;1190;25341;-62
2022/10/07 08:04:08;;;;;;;;;21.00;17.33;;;24.92;102306.73;;;;117396;1190;25234;-62
2022/10/07 08:06:37;;;;;;;;;20.25;16.00;;;24.93;102306.23;;;;117422;1189;25730;-61
2022/10/07 08:09:05;;;;;;;;;23.50;17.00;;;24.94;102309.22;;;;117432;1190;24763;-63
2022/10/07 08:11:34;;;;;;;;;17.33;14.67;;;24.97;102303.61;;;;117397;1190;25253;-62
2022/10/07 08:14:03;;;;;;;;;17.00;16.50;;;25.00;102303.79;;;;117768;1190;25269;-62
2022/10/07 08:16:31;;;;;;;;;21.00;16.33;;;25.09;102302.52;;;;117407;1190;25586;-64
2022/10/07 08:19:00;;;;;;;;;16.00;15.00;;;25.09;102297.21;;;;117466;1190;24982;-62
2022/10/07 08:21:31;;;;;;;;;16.25;13.75;;;25.08;102298.50;;;;117427;1189;25081;-62
2022/10/07 08:24:02;;;;;;;;;20.50;15.00;;;25.08;102298.05;;;;117435;1189;25130;-61
2022/10/07 08:26:32;;;;;;;;;18.25;14.75;;;25.09;102294.02;;;;117458;1189;25034;-61
2022/10/07 08:29:01;;;;;;;;;20.25;15.00;;;25.10;102294.83;;;;117477;1188;25612;-64
2022/10/07 08:31:30;;;;;;;;;16.33;14.67;;;25.14;102290.30;;;;117494;1189;25349;-61
2022/10/07 08:34:01;;;;;;;;;17.00;15.33;;;25.12;102291.20;;;;117862;1188;24746;-62
2022/10/07 08:36:31;;;;;;;;;19.00;13.00;;;25.14;102292.28;;;;117811;1186;24926;-60
2022/10/07 08:39:01;;;;;;;;;15.33;12.33;;;25.16;102287.10;;;;117798;1186;25001;-61
2022/10/07 08:41:49;;;;;;;;;17.00;14.00;;;25.18;102289.16;;;;117872;1187;24704;-61
2022/10/07 08:44:25;;;;;;;;;20.33;13.67;;;25.23;102290.73;;;;117497;1188;25469;-64
2022/10/07 08:46:59;;;;;;;;;12.00;10.25;;;25.21;102295.52;;;;117494;1188;25343;-60
2022/10/07 08:49:35;;;;;;;;;17.67;14.00;;;25.20;102288.13;;;;117479;1188;25075;-60
2022/10/07 08:52:31;;;;;;;;;18.00;15.33;;;25.18;102286.80;;;;117884;1187;24909;-61
2022/10/07 08:55:00;;;;;;;;;14.75;11.00;;;25.19;102284.79;;;;117999;1188;25729;-61
2022/10/07 08:58:04;;;;;;;;;15.00;13.00;;;25.24;102282.75;;;;117542;1188;25314;-60
2022/10/07 09:00:41;;;;;;;;;14.00;11.00;;;25.33;102281.58;;;;117803;1187;25497;-59
2022/10/07 09:03:19;;;;;;;;;19.25;13.00;;;25.32;102280.77;;;;117517;1187;25624;-59
2022/10/07 09:05:54;;;;;;;;;16.67;14.00;;;25.31;102280.92;;;;117499;1189;25313;-58
2022/10/07 09:08:31;;;;;;;;;17.50;14.25;;;25.30;102277.61;;;;117520;1189;24908;-59
2022/10/07 09:11:14;;;;;;;;;16.75;14.50;;;25.29;102277.90;;;;117512;1188;25086;-59
2022/10/07 09:13:57;;;;;;;;;20.75;18.00;;;25.34;102274.64;;;;117765;1188;25171;-63
2022/10/07 09:16:31;;;;;;;;;20.75;20.00;;;25.41;102271.36;;;;117754;1187;24978;-58
2022/10/07 09:19:02;;;;;;;;;23.50;18.75;;;25.41;102271.15;;;;117493;1189;25080;-59
2022/10/07 09:21:47;;;;;;;;;21.33;17.00;;;25.38;102271.46;;;;117871;1188;24949;-58
2022/10/07 09:24:24;;;;;;;;;18.00;16.00;;;25.38;102270.48;;;;117506;1189;25290;-57
2022/10/07 09:26:58;;;;;;;;;24.50;18.50;;;25.33;102267.38;;;;117521;1187;25663;-58
2022/10/07 09:29:29;;;;;;;;;17.00;16.25;;;25.34;102265.81;;;;117506;1188;25628;-61
2022/10/07 09:31:57;;;;;;;;;22.33;17.67;;;25.33;102265.83;;;;117750;1186;25613;-61
2022/10/07 09:34:29;;;;;;;;;21.00;17.00;;;25.35;102261.33;;;;118156;1188;25375;-59
2022/10/07 09:37:22;;;;;;;;;24.25;17.00;;;25.51;102264.55;;;;118008;1188;25204;-63
2022/10/07 09:39:52;;;;;;;;;14.75;12.50;;;25.70;102257.20;;;;117460;1188;24903;-59
2022/10/07 09:42:44;;;;;;;;;17.33;14.33;;;25.65;102260.23;;;;117491;1189;25385;-63
2022/10/07 09:45:32;;;;;;;;;17.50;14.75;;;25.61;102257.89;;;;117454;1187;24941;-61
2022/10/07 09:48:06;;;;;;;;;16.50;14.25;;;25.58;102254.89;;;;117460;1189;26162;-60
2022/10/07 09:50:35;;;;;;;;;15.75;12.25;;;25.52;102250.56;;;;117477;1188;25148;-61
2022/10/07 09:53:22;;;;;;;;;17.50;13.50;;;25.48;102251.17;;;;117746;1187;25459;-60
2022/10/07 09:55:53;;;;;;;;;19.00;15.00;;;25.46;102248.33;;;;118473;1189;25218;-60
2022/10/07 09:58:29;;;;;;;;;17.25;14.75;;;25.65;102245.92;;;;119333;1189;25387;-60
2022/10/07 10:00:59;;;;;;;;;12.00;10.67;;;25.95;102243.06;;;;117449;1188;25001;-60
2022/10/07 10:03:33;;;;;;;;;14.00;12.00;;;25.89;102240.20;;;;117791;1187;24858;-62
2022/10/07 10:06:08;;;;;;;;;15.50;12.50;;;25.76;102235.31;;;;117496;1189;25525;-60
2022/10/07 10:08:40;;;;;;;;;17.25;11.25;;;25.68;102234.36;;;;117459;1189;25203;-60
2022/10/07 10:11:18;;;;;;;;;15.75;12.25;;;25.57;102232.40;;;;117878;1188;25459;-61
2022/10/07 10:13:48;;;;;;;;;13.75;12.75;;;25.55;102232.65;;;;117432;1188;24795;-60
2022/10/07 10:16:39;;;;;;;;;19.75;14.25;;;25.51;102227.03;;;;117478;1189;26394;-62
2022/10/07 10:19:22;;;;;;;;;16.50;13.75;;;25.50;102221.58;;;;117491;1189;25028;-61
2022/10/07 10:21:54;;;;;;;;;15.75;13.00;;;25.50;102220.82;;;;117443;1188;25032;-61
2022/10/07 10:27:18;;;;;;;;;13.33;11.33;;;25.47;102214.15;;;;117783;1188;25307;-62
2022/10/07 10:30:00;;;;;;;;;14.00;10.00;;;25.44;102210.58;;;;117663;1188;25021;-60
2022/10/07 10:32:50;;;;;;;;;15.50;13.00;;;25.42;102212.96;;;;117890;1188;24925;-62
2022/10/07 10:35:28;;;;;;;;;17.75;11.50;;;25.38;102204.36;;;;117799;1187;25662;-61
2022/10/07 10:38:18;;;;;;;;;14.00;12.00;;;25.33;102200.03;;;;117488;1188;25128;-60
2022/10/07 10:41:10;;;;;;;;;19.00;12.00;;;25.31;102192.39;;;;117826;1188;25217;-60
2022/10/07 10:43:47;;;;;;;;;12.00;8.75;;;25.31;102184.91;;;;117402;1190;25657;-60
2022/10/07 10:46:25;;;;;;;;;18.00;13.33;;;25.30;102179.54;;;;117535;1188;24828;-60
2022/10/07 10:49:09;;;;;;;;;14.50;11.75;;;25.27;102172.67;;;;117517;1188;25012;-59
2022/10/07 10:51:47;;;;;;;;;16.00;13.33;;;25.25;102170.00;;;;117805;1186;25622;-61
2022/10/07 10:54:37;;;;;;;;;13.25;11.25;;;25.23;102165.35;;;;117441;1188;25574;-67
2022/10/07 10:57:30;;;;;;;;;15.75;12.25;;;25.23;102161.16;;;;117804;1188;24816;-60
2022/10/07 11:00:12;;;;;;;;;15.75;13.00;;;25.22;102159.58;;;;117822;1187;24814;-61
2022/10/07 11:03:00;;;;;;;;;17.00;12.50;;;25.21;102158.13;;;;117839;1187;25407;-61
2022/10/07 11:05:35;;;;;;;;;16.50;12.25;;;25.20;102157.58;;;;117436;1188;25125;-61
2022/10/07 11:08:16;;;;;;;;;10.67;10.67;;;25.20;102153.71;;;;117846;1188;25217;-60
2022/10/07 11:11:18;;;;;;;;;13.00;12.00;;;25.19;102150.08;;;;117466;1188;25327;-61
2022/10/07 11:14:03;;;;;;;;;15.25;13.25;;;25.20;102145.96;;;;117471;1187;25684;-61
2022/10/07 11:16:36;;;;;;;;;15.00;12.00;;;25.15;102141.36;;;;117499;1188;25314;-60
2022/10/07 11:19:24;;;;;;;;;13.00;10.75;;;25.13;102139.61;;;;117466;1188;25614;-60
2022/10/07 11:21:57;;;;;;;;;14.25;13.00;;;25.12;102138.33;;;;117695;1187;25119;-61
2022/10/07 11:24:38;;;;;;;;;13.25;12.00;;;25.10;102133.48;;;;117793;1188;25482;-62
2022/10/07 11:27:15;;;;;;;;;17.33;12.33;;;25.10;102136.27;;;;117497;1188;25369;-61
2022/10/07 11:29:54;;;;;;;;;21.75;14.00;;;25.09;102132.46;;;;117601;1187;25194;-62
2022/10/07 11:32:44;;;;;;;;;20.00;12.67;;;25.08;102131.33;;;;117712;1188;25162;-60
2022/10/07 11:35:16;;;;;;;;;16.33;11.67;;;25.08;102132.86;;;;117484;1189;24803;-61
2022/10/07 11:37:54;;;;;;;;;11.00;9.50;;;25.05;102130.02;;;;117527;1188;25431;-61
2022/10/07 11:41:22;;;;;;;;;18.67;13.00;;;;;;;;113532;1214;23142;-66
2022/10/07 11:43:55;;;;;;;;;12.50;10.00;;;;;;;;114617;1200;25174;-64
2022/10/07 11:46:34;;;;;;;;;12.00;10.00;;;;;;;;114460;1207;24868;-63
2022/10/07 11:49:21;;;;;;;;;14.00;12.00;;;;;;;;114453;1206;25380;-61
2022/10/07 11:52:02;;;;;;;;;18.00;12.00;;;;;;;;114826;1201;24797;-60
2022/10/07 11:54:39;;;;;;;;;9.00;8.50;;;;;;;;114844;1206;25116;-60
2022/10/07 11:57:23;;;;;;;;;14.00;12.33;;;;;;;;114649;1211;24719;-61
2022/10/07 12:07:39;;;;;;;;;13.00;9.33;;;;;;;;113514;1216;23184;-65
2022/10/07 12:10:29;;;;;;;;;10.25;6.50;;;;;;;;114304;1203;25037;-60
2022/10/07 12:13:08;;;;;;;;;10.50;10.50;;;;;;;;114233;1216;24977;-59
2022/10/07 12:15:41;;;;;;;;;11.00;8.00;;;;;;;;114335;1212;25103;-60
2022/10/07 12:18:11;;;;;;;;;11.00;10.00;;;;;;;;114208;1203;25259;-60
2022/10/07 12:21:00;;;;;;;;;13.00;11.00;;;;;;;;114375;1206;25014;-60
2022/10/07 12:23:29;;;;;;;;;9.00;9.00;;;;;;;;114317;1206;25043;-60
2022/10/07 12:26:29;;;;;;;;;12.50;8.50;;;;;;;;114352;1212;25148;-60
2022/10/07 12:28:57;;;;;;;;;13.00;11.00;;;;;;;;114232;1212;25085;-60
2022/10/07 12:31:32;;;;;;;;;13.00;11.00;;;;;;;;114190;1213;25194;-60
2022/10/07 12:34:03;;;;;;;;;13.00;12.00;;;;;;;;114294;1214;25249;-60
2022/10/07 12:36:32;;;;;;;;;13.00;11.33;;;;;;;;114297;1214;24834;-60
2022/10/07 12:39:00;;;;;;;;;12.33;10.67;;;;;;;;114206;1213;24738;-61
2022/10/07 12:41:31;;;;;;;;;12.00;10.00;;;;;;;;114335;1211;25533;-61
2022/10/07 12:44:39;;;;;;;;;11.00;11.00;;;;;;;;114336;1212;25501;-61
2022/10/07 12:47:23;;;;;;;;;8.33;7.67;;;;;;;;114240;1210;25145;-60